Terminal Aerodrome Forecast
Issued by NWS

Home | Current Version | Previous Version | Text Only | Print | Product List | Glossary On
Versions: 1 2 3 4 5 6 7 8 9 10 11 12 13 14 15
000
FTUS46 KSGX 122300
TAFONT
TAF
KONT 122320Z 1300/1406 26012KT P6SM BKN200
     FM130500 VRB04KT P6SM SCT200
     FM132100 27012KT P6SM SCT100 SCT200
     FM140400 VRB05KT P6SM SCT150=

USA.gov is the U.S. government's official web portal to all federal, state and local government web resources and services.